sensor_id;sensor_type;location;lat;lon;timestamp;P1;durP1;ratioP1;P2;durP2;ratioP2
63324;SDS011;49451;52.390;13.028;2022-12-20T04:01:49;15.88;;;10.38;;
63324;SDS011;49451;52.390;13.028;2022-12-20T04:04:14;20.27;;;10.27;;
63324;SDS011;49451;52.390;13.028;2022-12-20T04:06:40;18.83;;;9.82;;
63324;SDS011;49451;52.390;13.028;2022-12-20T04:09:05;23.95;;;9.95;;
63324;SDS011;49451;52.390;13.028;2022-12-20T04:11:31;17.23;;;10.27;;
63324;SDS011;49451;52.390;13.028;2022-12-20T04:13:59;15.80;;;9.23;;
63324;SDS011;49451;52.390;13.028;2022-12-20T04:16:26;15.05;;;8.07;;
63324;SDS011;49451;52.390;13.028;2022-12-20T04:18:52;19.23;;;9.85;;
63324;SDS011;49451;52.390;13.028;2022-12-20T04:21:21;15.32;;;8.35;;
63324;SDS011;49451;52.390;13.028;2022-12-20T04:23:48;11.40;;;6.45;;
63324;SDS011;49451;52.390;13.028;2022-12-20T04:26:14;13.70;;;8.95;;
63324;SDS011;49451;52.390;13.028;2022-12-20T04:28:39;16.55;;;8.70;;
63324;SDS011;49451;52.390;13.028;2022-12-20T04:31:05;16.27;;;8.18;;
63324;SDS011;49451;52.390;13.028;2022-12-20T04:33:31;19.35;;;7.82;;
63324;SDS011;49451;52.390;13.028;2022-12-20T04:35:56;20.02;;;10.32;;
63324;SDS011;49451;52.390;13.028;2022-12-20T04:38:22;13.98;;;7.85;;
63324;SDS011;49451;52.390;13.028;2022-12-20T04:40:48;13.90;;;8.50;;
63324;SDS011;49451;52.390;13.028;2022-12-20T04:43:14;13.80;;;8.52;;
63324;SDS011;49451;52.390;13.028;2022-12-20T04:45:40;13.32;;;7.82;;
63324;SDS011;49451;52.390;13.028;2022-12-20T04:48:06;13.85;;;7.47;;
63324;SDS011;49451;52.390;13.028;2022-12-20T04:50:31;13.80;;;8.75;;
63324;SDS011;49451;52.390;13.028;2022-12-20T04:52:56;15.38;;;9.25;;
63324;SDS011;49451;52.390;13.028;2022-12-20T04:55:40;17.00;;;8.23;;
63324;SDS011;49451;52.390;13.028;2022-12-20T04:58:06;18.52;;;9.55;;
63324;SDS011;49451;52.390;13.028;2022-12-20T05:00:32;18.98;;;10.52;;
63324;SDS011;49451;52.390;13.028;2022-12-20T05:02:58;19.63;;;10.35;;
63324;SDS011;49451;52.390;13.028;2022-12-20T05:05:24;16.15;;;9.90;;
63324;SDS011;49451;52.390;13.028;2022-12-20T05:07:50;18.85;;;9.68;;
63324;SDS011;49451;52.390;13.028;2022-12-20T05:10:16;14.05;;;8.13;;
63324;SDS011;49451;52.390;13.028;2022-12-20T05:12:41;19.15;;;9.30;;
63324;SDS011;49451;52.390;13.028;2022-12-20T05:15:07;12.57;;;7.00;;
63324;SDS011;49451;52.390;13.028;2022-12-20T05:17:33;15.65;;;7.97;;
63324;SDS011;49451;52.390;13.028;2022-12-20T05:19:59;12.52;;;7.35;;
63324;SDS011;49451;52.390;13.028;2022-12-20T05:22:24;21.38;;;10.15;;
63324;SDS011;49451;52.390;13.028;2022-12-20T05:25:09;13.63;;;8.15;;
63324;SDS011;49451;52.390;13.028;2022-12-20T05:27:54;15.23;;;8.30;;
63324;SDS011;49451;52.390;13.028;2022-12-20T05:30:19;15.88;;;8.73;;
63324;SDS011;49451;52.390;13.028;2022-12-20T05:32:45;9.60;;;6.30;;
63324;SDS011;49451;52.390;13.028;2022-12-20T05:35:10;10.55;;;6.68;;
63324;SDS011;49451;52.390;13.028;2022-12-20T05:37:35;17.52;;;8.98;;
63324;SDS011;49451;52.390;13.028;2022-12-20T05:40:01;17.35;;;9.60;;
63324;SDS011;49451;52.390;13.028;2022-12-20T05:42:26;15.05;;;8.77;;
63324;SDS011;49451;52.390;13.028;2022-12-20T05:44:51;15.52;;;8.30;;
63324;SDS011;49451;52.390;13.028;2022-12-20T05:47:17;16.25;;;8.90;;
63324;SDS011;49451;52.390;13.028;2022-12-20T05:49:42;15.98;;;8.52;;
63324;SDS011;49451;52.390;13.028;2022-12-20T05:52:07;16.42;;;9.18;;
63324;SDS011;49451;52.390;13.028;2022-12-20T05:54:33;16.80;;;7.70;;
63324;SDS011;49451;52.390;13.028;2022-12-20T05:56:58;14.63;;;8.40;;
63324;SDS011;49451;52.390;13.028;2022-12-20T05:59:24;17.13;;;9.77;;
63324;SDS011;49451;52.390;13.028;2022-12-20T06:01:49;19.88;;;9.93;;
63324;SDS011;49451;52.390;13.028;2022-12-20T06:04:14;18.27;;;8.95;;
63324;SDS011;49451;52.390;13.028;2022-12-20T06:06:41;13.52;;;7.80;;
63324;SDS011;49451;52.390;13.028;2022-12-20T06:09:06;14.80;;;8.63;;
63324;SDS011;49451;52.390;13.028;2022-12-20T06:11:31;17.98;;;9.35;;
63324;SDS011;49451;52.390;13.028;2022-12-20T06:13:57;15.20;;;7.70;;
63324;SDS011;49451;52.390;13.028;2022-12-20T06:16:23;14.52;;;8.65;;
63324;SDS011;49451;52.390;13.028;2022-12-20T06:18:49;19.30;;;10.80;;
63324;SDS011;49451;52.390;13.028;2022-12-20T06:21:15;17.35;;;8.65;;
63324;SDS011;49451;52.390;13.028;2022-12-20T06:23:40;15.10;;;8.10;;
63324;SDS011;49451;52.390;13.028;2022-12-20T06:26:06;15.00;;;8.93;;
63324;SDS011;49451;52.390;13.028;2022-12-20T06:28:33;15.38;;;9.65;;
63324;SDS011;49451;52.390;13.028;2022-12-20T06:30:59;19.58;;;9.85;;
63324;SDS011;49451;52.390;13.028;2022-12-20T06:33:25;22.92;;;8.60;;
63324;SDS011;49451;52.390;13.028;2022-12-20T06:35:50;18.30;;;9.50;;
63324;SDS011;49451;52.390;13.028;2022-12-20T06:38:16;13.77;;;8.18;;
63324;SDS011;49451;52.390;13.028;2022-12-20T06:40:42;21.17;;;9.10;;
63324;SDS011;49451;52.390;13.028;2022-12-20T06:43:07;13.27;;;8.55;;
63324;SDS011;49451;52.390;13.028;2022-12-20T06:45:33;12.50;;;7.78;;
63324;SDS011;49451;52.390;13.028;2022-12-20T06:47:58;20.27;;;8.40;;
63324;SDS011;49451;52.390;13.028;2022-12-20T06:50:24;14.52;;;8.57;;
63324;SDS011;49451;52.390;13.028;2022-12-20T06:52:49;16.67;;;10.45;;
63324;SDS011;49451;52.390;13.028;2022-12-20T06:55:15;13.60;;;7.65;;
63324;SDS011;49451;52.390;13.028;2022-12-20T06:57:40;18.05;;;9.35;;
63324;SDS011;49451;52.390;13.028;2022-12-20T07:00:06;13.38;;;8.13;;
63324;SDS011;49451;52.390;13.028;2022-12-20T07:02:32;12.40;;;6.95;;
63324;SDS011;49451;52.390;13.028;2022-12-20T07:04:58;21.38;;;9.93;;
63324;SDS011;49451;52.390;13.028;2022-12-20T07:07:23;17.10;;;9.48;;
63324;SDS011;49451;52.390;13.028;2022-12-20T07:09:49;15.48;;;8.60;;
63324;SDS011;49451;52.390;13.028;2022-12-20T07:12:14;15.13;;;9.07;;
63324;SDS011;49451;52.390;13.028;2022-12-20T07:14:40;14.98;;;7.97;;
63324;SDS011;49451;52.390;13.028;2022-12-20T07:17:06;19.08;;;9.80;;
63324;SDS011;49451;52.390;13.028;2022-12-20T07:19:31;20.73;;;12.05;;
63324;SDS011;49451;52.390;13.028;2022-12-20T07:21:57;20.67;;;10.73;;
63324;SDS011;49451;52.390;13.028;2022-12-20T07:24:23;18.27;;;10.30;;
63324;SDS011;49451;52.390;13.028;2022-12-20T07:26:48;17.50;;;10.57;;
63324;SDS011;49451;52.390;13.028;2022-12-20T07:29:14;18.60;;;10.45;;
63324;SDS011;49451;52.390;13.028;2022-12-20T07:31:39;19.05;;;9.68;;
63324;SDS011;49451;52.390;13.028;2022-12-20T07:34:04;15.30;;;9.95;;
63324;SDS011;49451;52.390;13.028;2022-12-20T07:36:30;16.73;;;9.77;;
63324;SDS011;49451;52.390;13.028;2022-12-20T07:38:56;19.25;;;10.50;;
63324;SDS011;49451;52.390;13.028;2022-12-20T07:41:22;17.98;;;10.50;;
63324;SDS011;49451;52.390;13.028;2022-12-20T07:43:49;25.92;;;12.55;;
63324;SDS011;49451;52.390;13.028;2022-12-20T07:46:15;15.95;;;10.32;;
63324;SDS011;49451;52.390;13.028;2022-12-20T07:48:41;17.75;;;11.15;;
63324;SDS011;49451;52.390;13.028;2022-12-20T07:51:11;16.20;;;10.45;;
63324;SDS011;49451;52.390;13.028;2022-12-20T07:53:51;20.05;;;11.18;;
63324;SDS011;49451;52.390;13.028;2022-12-20T07:56:22;17.20;;;8.35;;
63324;SDS011;49451;52.390;13.028;2022-12-20T07:58:48;22.70;;;11.55;;
63324;SDS011;49451;52.390;13.028;2022-12-20T08:01:16;19.65;;;11.55;;
63324;SDS011;49451;52.390;13.028;2022-12-20T08:03:43;24.08;;;12.05;;
63324;SDS011;49451;52.390;13.028;2022-12-20T08:06:11;22.88;;;11.88;;
63324;SDS011;49451;52.390;13.028;2022-12-20T08:08:41;20.55;;;12.18;;
63324;SDS011;49451;52.390;13.028;2022-12-20T08:11:11;22.95;;;10.85;;
63324;SDS011;49451;52.390;13.028;2022-12-20T08:13:36;20.52;;;10.25;;
63324;SDS011;49451;52.390;13.028;2022-12-20T08:16:02;22.52;;;12.35;;
63324;SDS011;49451;52.390;13.028;2022-12-20T08:18:46;13.43;;;7.25;;
63324;SDS011;49451;52.390;13.028;2022-12-20T08:21:11;26.10;;;12.45;;
63324;SDS011;49451;52.390;13.028;2022-12-20T08:23:38;16.27;;;8.20;;
63324;SDS011;49451;52.390;13.028;2022-12-20T08:26:04;28.15;;;14.43;;
63324;SDS011;49451;52.390;13.028;2022-12-20T08:28:30;24.67;;;12.77;;
63324;SDS011;49451;52.390;13.028;2022-12-20T08:31:03;22.30;;;13.40;;
63324;SDS011;49451;52.390;13.028;2022-12-20T08:33:30;28.40;;;13.00;;
63324;SDS011;49451;52.390;13.028;2022-12-20T08:36:00;26.42;;;12.60;;
63324;SDS011;49451;52.390;13.028;2022-12-20T08:38:29;20.50;;;12.27;;
63324;SDS011;49451;52.390;13.028;2022-12-20T08:40:55;20.65;;;10.32;;
63324;SDS011;49451;52.390;13.028;2022-12-20T08:43:25;25.80;;;13.05;;
63324;SDS011;49451;52.390;13.028;2022-12-20T08:45:54;18.80;;;10.68;;
63324;SDS011;49451;52.390;13.028;2022-12-20T08:48:20;21.45;;;11.23;;
63324;SDS011;49451;52.390;13.028;2022-12-20T08:50:45;18.77;;;11.30;;
63324;SDS011;49451;52.390;13.028;2022-12-20T08:53:11;22.95;;;11.32;;
63324;SDS011;49451;52.390;13.028;2022-12-20T08:55:36;17.20;;;11.00;;
63324;SDS011;49451;52.390;13.028;2022-12-20T08:58:02;17.20;;;9.73;;
63324;SDS011;49451;52.390;13.028;2022-12-20T09:00:27;20.75;;;11.13;;
63324;SDS011;49451;52.390;13.028;2022-12-20T09:02:53;16.48;;;9.63;;
63324;SDS011;49451;52.390;13.028;2022-12-20T09:05:57;17.40;;;9.73;;
63324;SDS011;49451;52.390;13.028;2022-12-20T09:08:45;12.98;;;7.20;;
63324;SDS011;49451;52.390;13.028;2022-12-20T09:11:15;21.45;;;10.85;;
63324;SDS011;49451;52.390;13.028;2022-12-20T09:13:46;15.60;;;9.30;;
63324;SDS011;49451;52.390;13.028;2022-12-20T09:20:04;13.95;;;8.05;;
63324;SDS011;49451;52.390;13.028;2022-12-20T09:22:34;17.95;;;10.15;;
63324;SDS011;49451;52.390;13.028;2022-12-20T09:25:02;19.95;;;10.85;;
63324;SDS011;49451;52.390;13.028;2022-12-20T09:27:27;19.60;;;10.45;;
63324;SDS011;49451;52.390;13.028;2022-12-20T09:29:52;18.85;;;10.63;;
63324;SDS011;49451;52.390;13.028;2022-12-20T09:32:18;14.65;;;8.63;;
63324;SDS011;49451;52.390;13.028;2022-12-20T09:34:43;21.27;;;9.75;;
63324;SDS011;49451;52.390;13.028;2022-12-20T09:37:08;15.90;;;8.93;;
63324;SDS011;49451;52.390;13.028;2022-12-20T09:39:34;15.77;;;8.25;;
63324;SDS011;49451;52.390;13.028;2022-12-20T09:42:00;17.95;;;10.32;;
63324;SDS011;49451;52.390;13.028;2022-12-20T09:44:35;15.02;;;8.63;;
63324;SDS011;49451;52.390;13.028;2022-12-20T09:47:14;16.35;;;9.73;;
63324;SDS011;49451;52.390;13.028;2022-12-20T09:49:44;13.10;;;9.02;;
63324;SDS011;49451;52.390;13.028;2022-12-20T10:00:27;18.45;;;9.90;;
63324;SDS011;49451;52.390;13.028;2022-12-20T10:02:54;12.93;;;7.57;;
63324;SDS011;49451;52.390;13.028;2022-12-20T10:07:58;13.98;;;7.68;;
63324;SDS011;49451;52.390;13.028;2022-12-20T10:10:43;15.65;;;8.82;;
63324;SDS011;49451;52.390;13.028;2022-12-20T10:13:51;14.60;;;8.88;;
63324;SDS011;49451;52.390;13.028;2022-12-20T10:16:33;14.00;;;8.60;;
63324;SDS011;49451;52.390;13.028;2022-12-20T10:24:26;15.32;;;7.38;;
63324;SDS011;49451;52.390;13.028;2022-12-20T10:26:55;13.45;;;7.90;;
63324;SDS011;49451;52.390;13.028;2022-12-20T10:29:23;9.98;;;7.07;;
63324;SDS011;49451;52.390;13.028;2022-12-20T10:31:52;14.23;;;8.15;;
63324;SDS011;49451;52.390;13.028;2022-12-20T10:36:48;9.60;;;6.13;;
63324;SDS011;49451;52.390;13.028;2022-12-20T10:39:46;14.98;;;8.13;;
63324;SDS011;49451;52.390;13.028;2022-12-20T10:42:26;16.83;;;7.85;;
63324;SDS011;49451;52.390;13.028;2022-12-20T10:44:57;10.35;;;6.93;;
63324;SDS011;49451;52.390;13.028;2022-12-20T10:47:39;11.57;;;7.30;;
63324;SDS011;49451;52.390;13.028;2022-12-20T10:50:08;16.48;;;8.48;;
63324;SDS011;49451;52.390;13.028;2022-12-20T10:52:41;13.00;;;6.57;;
63324;SDS011;49451;52.390;13.028;2022-12-20T10:55:31;14.73;;;7.50;;
63324;SDS011;49451;52.390;13.028;2022-12-20T10:58:02;13.23;;;7.82;;
63324;SDS011;49451;52.390;13.028;2022-12-20T11:00:37;10.48;;;7.03;;
63324;SDS011;49451;52.390;13.028;2022-12-20T11:03:10;12.48;;;7.22;;
63324;SDS011;49451;52.390;13.028;2022-12-20T11:05:36;12.30;;;6.47;;
63324;SDS011;49451;52.390;13.028;2022-12-20T11:08:08;13.95;;;8.55;;
63324;SDS011;49451;52.390;13.028;2022-12-20T11:10:39;13.25;;;7.03;;
63324;SDS011;49451;52.390;13.028;2022-12-20T11:13:04;12.77;;;7.00;;
63324;SDS011;49451;52.390;13.028;2022-12-20T11:15:34;9.95;;;5.30;;
63324;SDS011;49451;52.390;13.028;2022-12-20T11:26:53;11.13;;;6.97;;
63324;SDS011;49451;52.390;13.028;2022-12-20T11:29:32;14.60;;;7.63;;
63324;SDS011;49451;52.390;13.028;2022-12-20T11:37:24;9.82;;;6.07;;
63324;SDS011;49451;52.390;13.028;2022-12-20T11:48:17;14.75;;;7.32;;
63324;SDS011;49451;52.390;13.028;2022-12-20T11:50:57;13.68;;;7.63;;
63324;SDS011;49451;52.390;13.028;2022-12-20T12:04:53;10.68;;;5.80;;
63324;SDS011;49451;52.390;13.028;2022-12-20T12:07:25;11.57;;;6.82;;
63324;SDS011;49451;52.390;13.028;2022-12-20T12:12:32;13.88;;;7.45;;
63324;SDS011;49451;52.390;13.028;2022-12-20T12:15:27;11.15;;;6.63;;
63324;SDS011;49451;52.390;13.028;2022-12-20T12:18:39;12.82;;;7.38;;
63324;SDS011;49451;52.390;13.028;2022-12-20T12:21:43;13.82;;;7.40;;
63324;SDS011;49451;52.390;13.028;2022-12-20T12:26:49;8.82;;;6.15;;
63324;SDS011;49451;52.390;13.028;2022-12-20T12:29:16;12.90;;;6.32;;
63324;SDS011;49451;52.390;13.028;2022-12-20T12:31:54;12.82;;;8.10;;
63324;SDS011;49451;52.390;13.028;2022-12-20T12:45:35;11.38;;;6.43;;
63324;SDS011;49451;52.390;13.028;2022-12-20T12:50:34;11.27;;;6.43;;
63324;SDS011;49451;52.390;13.028;2022-12-20T12:53:16;12.70;;;6.18;;
63324;SDS011;49451;52.390;13.028;2022-12-20T12:55:46;10.90;;;7.15;;
63324;SDS011;49451;52.390;13.028;2022-12-20T13:01:09;11.13;;;5.97;;
63324;SDS011;49451;52.390;13.028;2022-12-20T13:03:45;14.52;;;6.60;;
63324;SDS011;49451;52.390;13.028;2022-12-20T13:11:50;14.35;;;8.02;;
63324;SDS011;49451;52.390;13.028;2022-12-20T13:16:45;7.90;;;4.93;;
63324;SDS011;49451;52.390;13.028;2022-12-20T13:19:29;14.57;;;6.88;;
63324;SDS011;49451;52.390;13.028;2022-12-20T13:27:02;10.70;;;6.68;;
63324;SDS011;49451;52.390;13.028;2022-12-20T13:29:50;11.25;;;5.75;;
63324;SDS011;49451;52.390;13.028;2022-12-20T13:37:51;12.85;;;6.47;;
63324;SDS011;49451;52.390;13.028;2022-12-20T13:40:32;10.60;;;6.63;;
63324;SDS011;49451;52.390;13.028;2022-12-20T13:45:53;13.60;;;6.28;;
63324;SDS011;49451;52.390;13.028;2022-12-20T13:48:27;8.02;;;5.25;;
63324;SDS011;49451;52.390;13.028;2022-12-20T13:50:59;11.70;;;7.05;;
63324;SDS011;49451;52.390;13.028;2022-12-20T13:53:26;8.30;;;5.53;;
63324;SDS011;49451;52.390;13.028;2022-12-20T13:55:52;12.82;;;7.28;;
63324;SDS011;49451;52.390;13.028;2022-12-20T13:58:29;10.40;;;6.22;;
63324;SDS011;49451;52.390;13.028;2022-12-20T14:01:04;8.02;;;5.60;;
63324;SDS011;49451;52.390;13.028;2022-12-20T14:03:40;13.80;;;6.25;;
63324;SDS011;49451;52.390;13.028;2022-12-20T14:06:10;12.00;;;6.28;;
63324;SDS011;49451;52.390;13.028;2022-12-20T14:08:39;13.48;;;7.00;;
63324;SDS011;49451;52.390;13.028;2022-12-20T14:11:08;11.13;;;6.78;;
63324;SDS011;49451;52.390;13.028;2022-12-20T14:13:36;14.98;;;6.57;;
63324;SDS011;49451;52.390;13.028;2022-12-20T14:16:15;11.77;;;7.45;;
63324;SDS011;49451;52.390;13.028;2022-12-20T14:18:46;14.52;;;7.50;;
63324;SDS011;49451;52.390;13.028;2022-12-20T14:21:13;12.10;;;7.28;;
63324;SDS011;49451;52.390;13.028;2022-12-20T14:23:42;11.77;;;6.85;;
63324;SDS011;49451;52.390;13.028;2022-12-20T14:26:12;12.18;;;7.28;;
63324;SDS011;49451;52.390;13.028;2022-12-20T14:29:01;13.85;;;7.13;;
63324;SDS011;49451;52.390;13.028;2022-12-20T14:36:29;21.02;;;9.45;;
63324;SDS011;49451;52.390;13.028;2022-12-20T14:38:56;13.63;;;8.45;;
63324;SDS011;49451;52.390;13.028;2022-12-20T14:41:38;10.52;;;6.13;;
63324;SDS011;49451;52.390;13.028;2022-12-20T14:44:16;15.48;;;7.63;;
63324;SDS011;49451;52.390;13.028;2022-12-20T14:46:54;11.38;;;6.00;;
63324;SDS011;49451;52.390;13.028;2022-12-20T14:49:32;14.55;;;8.70;;
63324;SDS011;49451;52.390;13.028;2022-12-20T14:52:06;11.95;;;7.40;;
63324;SDS011;49451;52.390;13.028;2022-12-20T14:54:57;11.40;;;6.20;;
63324;SDS011;49451;52.390;13.028;2022-12-20T14:57:26;14.23;;;7.47;;
63324;SDS011;49451;52.390;13.028;2022-12-20T14:59:59;11.10;;;6.72;;
63324;SDS011;49451;52.390;13.028;2022-12-20T15:03:29;12.90;;;7.35;;
63324;SDS011;49451;52.390;13.028;2022-12-20T15:05:43;13.20;;;6.85;;
63324;SDS011;49451;52.390;13.028;2022-12-20T15:13:18;13.32;;;7.45;;
63324;SDS011;49451;52.390;13.028;2022-12-20T15:15:44;15.95;;;7.00;;
63324;SDS011;49451;52.390;13.028;2022-12-20T15:18:11;12.70;;;7.07;;
63324;SDS011;49451;52.390;13.028;2022-12-20T15:24:16;16.17;;;8.23;;
63324;SDS011;49451;52.390;13.028;2022-12-20T15:29:53;18.17;;;9.38;;
63324;SDS011;49451;52.390;13.028;2022-12-20T15:32:30;10.15;;;5.88;;
63324;SDS011;49451;52.390;13.028;2022-12-20T15:35:16;10.40;;;6.95;;
63324;SDS011;49451;52.390;13.028;2022-12-20T15:37:41;10.70;;;7.13;;
63324;SDS011;49451;52.390;13.028;2022-12-20T15:40:12;17.88;;;8.85;;
63324;SDS011;49451;52.390;13.028;2022-12-20T15:42:49;17.15;;;7.93;;
63324;SDS011;49451;52.390;13.028;2022-12-20T15:45:15;18.17;;;10.10;;
63324;SDS011;49451;52.390;13.028;2022-12-20T15:47:41;9.32;;;5.88;;
63324;SDS011;49451;52.390;13.028;2022-12-20T15:50:06;15.85;;;8.23;;
63324;SDS011;49451;52.390;13.028;2022-12-20T15:52:32;15.77;;;8.05;;
63324;SDS011;49451;52.390;13.028;2022-12-20T15:54:57;17.67;;;8.57;;
63324;SDS011;49451;52.390;13.028;2022-12-20T15:57:23;19.27;;;9.65;;
63324;SDS011;49451;52.390;13.028;2022-12-20T15:59:48;16.92;;;9.23;;
63324;SDS011;49451;52.390;13.028;2022-12-20T16:02:22;15.68;;;8.73;;
63324;SDS011;49451;52.390;13.028;2022-12-20T16:04:52;16.40;;;9.63;;
63324;SDS011;49451;52.390;13.028;2022-12-20T16:07:18;13.88;;;8.07;;
63324;SDS011;49451;52.390;13.028;2022-12-20T16:09:43;18.92;;;9.75;;
63324;SDS011;49451;52.390;13.028;2022-12-20T16:12:12;15.13;;;9.40;;
63324;SDS011;49451;52.390;13.028;2022-12-20T16:14:40;13.95;;;8.30;;
63324;SDS011;49451;52.390;13.028;2022-12-20T16:17:07;15.65;;;9.48;;
63324;SDS011;49451;52.390;13.028;2022-12-20T16:19:38;18.77;;;9.60;;
63324;SDS011;49451;52.390;13.028;2022-12-20T16:22:04;15.57;;;8.63;;
63324;SDS011;49451;52.390;13.028;2022-12-20T16:24:29;16.85;;;9.85;;
63324;SDS011;49451;52.390;13.028;2022-12-20T16:26:54;21.60;;;10.20;;
63324;SDS011;49451;52.390;13.028;2022-12-20T16:29:20;18.38;;;9.45;;
63324;SDS011;49451;52.390;13.028;2022-12-20T16:31:49;19.35;;;10.38;;
63324;SDS011;49451;52.390;13.028;2022-12-20T16:34:15;19.23;;;10.43;;
63324;SDS011;49451;52.390;13.028;2022-12-20T16:36:42;19.13;;;10.77;;
63324;SDS011;49451;52.390;13.028;2022-12-20T16:39:08;23.42;;;11.13;;
63324;SDS011;49451;52.390;13.028;2022-12-20T16:41:34;19.25;;;10.18;;
63324;SDS011;49451;52.390;13.028;2022-12-20T16:44:01;17.60;;;10.20;;
63324;SDS011;49451;52.390;13.028;2022-12-20T16:46:28;20.10;;;9.85;;
63324;SDS011;49451;52.390;13.028;2022-12-20T16:48:55;17.42;;;9.65;;
63324;SDS011;49451;52.390;13.028;2022-12-20T16:51:29;12.93;;;7.80;;
63324;SDS011;49451;52.390;13.028;2022-12-20T16:56:21;14.05;;;8.27;;
63324;SDS011;49451;52.390;13.028;2022-12-20T16:58:47;18.45;;;10.30;;
63324;SDS011;49451;52.390;13.028;2022-12-20T17:01:17;27.77;;;11.20;;
63324;SDS011;49451;52.390;13.028;2022-12-20T17:03:47;20.67;;;10.70;;
63324;SDS011;49451;52.390;13.028;2022-12-20T17:06:13;18.08;;;9.55;;
63324;SDS011;49451;52.390;13.028;2022-12-20T17:08:40;17.92;;;10.23;;
63324;SDS011;49451;52.390;13.028;2022-12-20T17:11:17;16.98;;;9.05;;
63324;SDS011;49451;52.390;13.028;2022-12-20T17:13:44;19.23;;;9.75;;
63324;SDS011;49451;52.390;13.028;2022-12-20T17:16:11;16.13;;;9.68;;
63324;SDS011;49451;52.390;13.028;2022-12-20T17:18:38;16.45;;;9.25;;
63324;SDS011;49451;52.390;13.028;2022-12-20T17:21:13;16.73;;;9.43;;
63324;SDS011;49451;52.390;13.028;2022-12-20T17:23:53;18.63;;;10.15;;
63324;SDS011;49451;52.390;13.028;2022-12-20T17:26:21;15.35;;;8.57;;
63324;SDS011;49451;52.390;13.028;2022-12-20T17:28:49;19.20;;;9.85;;
63324;SDS011;49451;52.390;13.028;2022-12-20T17:33:54;19.83;;;10.32;;
63324;SDS011;49451;52.390;13.028;2022-12-20T17:36:20;15.73;;;9.43;;
63324;SDS011;49451;52.390;13.028;2022-12-20T17:38:46;15.32;;;9.38;;
63324;SDS011;49451;52.390;13.028;2022-12-20T17:41:21;16.00;;;7.65;;
63324;SDS011;49451;52.390;13.028;2022-12-20T17:43:51;16.13;;;9.68;;
63324;SDS011;49451;52.390;13.028;2022-12-20T17:46:18;14.38;;;8.40;;
63324;SDS011;49451;52.390;13.028;2022-12-20T17:48:44;15.68;;;8.73;;
63324;SDS011;49451;52.390;13.028;2022-12-20T17:51:17;17.67;;;8.93;;
63324;SDS011;49451;52.390;13.028;2022-12-20T17:53:48;18.02;;;10.40;;
63324;SDS011;49451;52.390;13.028;2022-12-20T17:56:21;16.05;;;8.95;;
63324;SDS011;49451;52.390;13.028;2022-12-20T17:58:47;21.38;;;10.25;;
63324;SDS011;49451;52.390;13.028;2022-12-20T18:01:23;17.63;;;9.82;;
63324;SDS011;49451;52.390;13.028;2022-12-20T18:03:51;18.83;;;10.82;;
63324;SDS011;49451;52.390;13.028;2022-12-20T18:06:17;19.50;;;8.80;;
63324;SDS011;49451;52.390;13.028;2022-12-20T18:08:47;16.08;;;10.52;;
63324;SDS011;49451;52.390;13.028;2022-12-20T18:11:15;19.90;;;8.50;;
63324;SDS011;49451;52.390;13.028;2022-12-20T18:13:42;16.52;;;10.10;;
63324;SDS011;49451;52.390;13.028;2022-12-20T18:16:09;19.50;;;9.93;;
63324;SDS011;49451;52.390;13.028;2022-12-20T18:18:36;18.60;;;10.85;;
63324;SDS011;49451;52.390;13.028;2022-12-20T18:21:05;16.10;;;10.02;;
63324;SDS011;49451;52.390;13.028;2022-12-20T18:23:33;16.67;;;9.43;;
63324;SDS011;49451;52.390;13.028;2022-12-20T18:26:04;14.98;;;7.85;;
63324;SDS011;49451;52.390;13.028;2022-12-20T18:28:29;17.17;;;9.00;;
63324;SDS011;49451;52.390;13.028;2022-12-20T18:30:55;17.58;;;9.38;;
63324;SDS011;49451;52.390;13.028;2022-12-20T18:33:20;19.48;;;10.55;;
63324;SDS011;49451;52.390;13.028;2022-12-20T18:35:45;18.58;;;10.68;;
63324;SDS011;49451;52.390;13.028;2022-12-20T18:38:11;13.20;;;7.35;;
63324;SDS011;49451;52.390;13.028;2022-12-20T18:40:42;17.27;;;9.45;;
63324;SDS011;49451;52.390;13.028;2022-12-20T18:43:08;19.33;;;11.10;;
63324;SDS011;49451;52.390;13.028;2022-12-20T18:45:33;19.50;;;9.85;;
63324;SDS011;49451;52.390;13.028;2022-12-20T18:47:59;16.55;;;9.45;;
63324;SDS011;49451;52.390;13.028;2022-12-20T18:50:24;16.40;;;9.70;;
63324;SDS011;49451;52.390;13.028;2022-12-20T18:52:49;16.00;;;9.50;;
63324;SDS011;49451;52.390;13.028;2022-12-20T18:55:15;20.13;;;10.57;;
63324;SDS011;49451;52.390;13.028;2022-12-20T18:57:40;15.73;;;8.77;;
63324;SDS011;49451;52.390;13.028;2022-12-20T19:00:06;18.40;;;10.55;;
63324;SDS011;49451;52.390;13.028;2022-12-20T19:02:32;17.35;;;9.65;;
63324;SDS011;49451;52.390;13.028;2022-12-20T19:04:58;17.88;;;9.57;;
63324;SDS011;49451;52.390;13.028;2022-12-20T19:07:23;16.60;;;8.85;;
63324;SDS011;49451;52.390;13.028;2022-12-20T19:09:49;20.42;;;10.10;;
63324;SDS011;49451;52.390;13.028;2022-12-20T19:12:14;18.98;;;11.23;;
63324;SDS011;49451;52.390;13.028;2022-12-20T19:14:40;17.70;;;9.85;;
63324;SDS011;49451;52.390;13.028;2022-12-20T19:17:05;16.42;;;10.27;;
63324;SDS011;49451;52.390;13.028;2022-12-20T19:19:30;19.92;;;10.30;;
63324;SDS011;49451;52.390;13.028;2022-12-20T19:21:56;15.85;;;9.40;;
63324;SDS011;49451;52.390;13.028;2022-12-20T19:24:21;20.55;;;9.57;;
63324;SDS011;49451;52.390;13.028;2022-12-20T19:26:50;18.17;;;10.40;;
63324;SDS011;49451;52.390;13.028;2022-12-20T19:29:15;14.65;;;8.68;;
63324;SDS011;49451;52.390;13.028;2022-12-20T19:31:40;19.88;;;10.82;;
63324;SDS011;49451;52.390;13.028;2022-12-20T19:34:09;16.90;;;8.80;;
63324;SDS011;49451;52.390;13.028;2022-12-20T19:39:03;33.80;;;11.20;;
63324;SDS011;49451;52.390;13.028;2022-12-20T19:41:31;20.40;;;11.30;;
63324;SDS011;49451;52.390;13.028;2022-12-20T19:43:57;21.65;;;8.73;;
63324;SDS011;49451;52.390;13.028;2022-12-20T19:46:23;24.67;;;11.05;;
63324;SDS011;49451;52.390;13.028;2022-12-20T19:48:50;19.77;;;10.05;;
63324;SDS011;49451;52.390;13.028;2022-12-20T19:51:18;19.67;;;10.55;;
63324;SDS011;49451;52.390;13.028;2022-12-20T19:53:45;21.10;;;10.75;;
63324;SDS011;49451;52.390;13.028;2022-12-20T19:56:12;20.42;;;10.10;;
63324;SDS011;49451;52.390;13.028;2022-12-20T19:58:41;17.08;;;10.48;;
63324;SDS011;49451;52.390;13.028;2022-12-20T20:01:07;21.27;;;11.05;;
63324;SDS011;49451;52.390;13.028;2022-12-20T20:03:34;20.40;;;10.60;;
63324;SDS011;49451;52.390;13.028;2022-12-20T20:06:00;19.17;;;10.98;;
63324;SDS011;49451;52.390;13.028;2022-12-20T20:08:27;21.58;;;9.93;;
63324;SDS011;49451;52.390;13.028;2022-12-20T20:10:56;22.10;;;10.00;;
63324;SDS011;49451;52.390;13.028;2022-12-20T20:13:23;18.80;;;9.30;;
63324;SDS011;49451;52.390;13.028;2022-12-20T20:15:49;19.83;;;10.50;;
63324;SDS011;49451;52.390;13.028;2022-12-20T20:18:22;16.73;;;9.07;;
63324;SDS011;49451;52.390;13.028;2022-12-20T20:20:52;16.05;;;8.57;;
63324;SDS011;49451;52.390;13.028;2022-12-20T20:23:19;21.38;;;10.65;;
63324;SDS011;49451;52.390;13.028;2022-12-20T20:25:48;17.48;;;10.20;;
63324;SDS011;49451;52.390;13.028;2022-12-20T20:28:16;17.52;;;9.43;;
63324;SDS011;49451;52.390;13.028;2022-12-20T20:30:42;21.67;;;10.30;;
63324;SDS011;49451;52.390;13.028;2022-12-20T20:33:08;17.33;;;10.05;;
63324;SDS011;49451;52.390;13.028;2022-12-20T20:35:37;14.82;;;9.07;;